sensor_id;sensor_type;location;lat;lon;timestamp;P1;durP1;ratioP1;P2;durP2;ratioP2
32824;SDS011;51060;42.640;24.356;2023-11-21T00:01:01;31.30;;;22.13;;
32824;SDS011;51060;42.640;24.356;2023-11-21T00:03:29;43.97;;;28.57;;
32824;SDS011;51060;42.640;24.356;2023-11-21T00:05:58;35.07;;;24.77;;
32824;SDS011;51060;42.640;24.356;2023-11-21T00:08:24;34.37;;;23.77;;
32824;SDS011;51060;42.640;24.356;2023-11-21T00:10:49;38.20;;;26.77;;
32824;SDS011;51060;42.640;24.356;2023-11-21T00:13:16;39.77;;;26.77;;
32824;SDS011;51060;42.640;24.356;2023-11-21T00:15:41;36.80;;;24.83;;
32824;SDS011;51060;42.640;24.356;2023-11-21T00:18:07;34.63;;;23.00;;
32824;SDS011;51060;42.640;24.356;2023-11-21T00:20:33;29.50;;;19.70;;
32824;SDS011;51060;42.640;24.356;2023-11-21T00:22:59;26.30;;;17.30;;
32824;SDS011;51060;42.640;24.356;2023-11-21T00:25:25;19.40;;;13.23;;
32824;SDS011;51060;42.640;24.356;2023-11-21T00:27:51;41.57;;;30.73;;
32824;SDS011;51060;42.640;24.356;2023-11-21T00:30:16;39.27;;;27.33;;
32824;SDS011;51060;42.640;24.356;2023-11-21T00:32:42;49.57;;;32.80;;
32824;SDS011;51060;42.640;24.356;2023-11-21T00:35:08;42.73;;;31.17;;
32824;SDS011;51060;42.640;24.356;2023-11-21T00:37:34;38.80;;;28.03;;
32824;SDS011;51060;42.640;24.356;2023-11-21T00:40:00;39.43;;;26.87;;
32824;SDS011;51060;42.640;24.356;2023-11-21T00:42:30;32.00;;;22.73;;
32824;SDS011;51060;42.640;24.356;2023-11-21T00:44:57;28.73;;;20.87;;
32824;SDS011;51060;42.640;24.356;2023-11-21T00:47:22;27.57;;;20.07;;
32824;SDS011;51060;42.640;24.356;2023-11-21T00:49:48;31.10;;;20.40;;
32824;SDS011;51060;42.640;24.356;2023-11-21T00:52:14;35.20;;;24.10;;
32824;SDS011;51060;42.640;24.356;2023-11-21T00:54:40;25.57;;;18.07;;
32824;SDS011;51060;42.640;24.356;2023-11-21T00:57:06;24.50;;;16.93;;
32824;SDS011;51060;42.640;24.356;2023-11-21T00:59:33;22.90;;;16.27;;
32824;SDS011;51060;42.640;24.356;2023-11-21T01:02:00;19.93;;;14.17;;
32824;SDS011;51060;42.640;24.356;2023-11-21T01:04:26;19.63;;;12.80;;
32824;SDS011;51060;42.640;24.356;2023-11-21T01:06:52;14.83;;;10.87;;
32824;SDS011;51060;42.640;24.356;2023-11-21T01:09:18;15.97;;;10.07;;
32824;SDS011;51060;42.640;24.356;2023-11-21T01:11:44;15.50;;;10.27;;
32824;SDS011;51060;42.640;24.356;2023-11-21T01:14:10;14.53;;;10.03;;
32824;SDS011;51060;42.640;24.356;2023-11-21T01:16:35;23.27;;;16.50;;
32824;SDS011;51060;42.640;24.356;2023-11-21T01:19:01;30.07;;;20.73;;
32824;SDS011;51060;42.640;24.356;2023-11-21T01:21:27;33.37;;;21.13;;
32824;SDS011;51060;42.640;24.356;2023-11-21T01:23:53;29.70;;;20.50;;
32824;SDS011;51060;42.640;24.356;2023-11-21T01:26:20;32.43;;;22.37;;
32824;SDS011;51060;42.640;24.356;2023-11-21T01:28:46;30.70;;;20.37;;
32824;SDS011;51060;42.640;24.356;2023-11-21T01:31:14;28.07;;;19.03;;
32824;SDS011;51060;42.640;24.356;2023-11-21T01:33:40;25.97;;;18.07;;
32824;SDS011;51060;42.640;24.356;2023-11-21T01:36:06;23.90;;;16.43;;
32824;SDS011;51060;42.640;24.356;2023-11-21T01:38:32;20.20;;;14.07;;
32824;SDS011;51060;42.640;24.356;2023-11-21T01:40:58;20.97;;;14.30;;
32824;SDS011;51060;42.640;24.356;2023-11-21T01:43:26;19.03;;;13.53;;
32824;SDS011;51060;42.640;24.356;2023-11-21T01:45:55;18.60;;;12.23;;
32824;SDS011;51060;42.640;24.356;2023-11-21T01:48:24;16.47;;;11.83;;
32824;SDS011;51060;42.640;24.356;2023-11-21T01:50:51;14.60;;;10.33;;
32824;SDS011;51060;42.640;24.356;2023-11-21T01:53:17;15.57;;;10.17;;
32824;SDS011;51060;42.640;24.356;2023-11-21T01:55:43;19.30;;;12.83;;
32824;SDS011;51060;42.640;24.356;2023-11-21T01:58:10;21.90;;;14.57;;
32824;SDS011;51060;42.640;24.356;2023-11-21T02:00:38;24.57;;;16.23;;
32824;SDS011;51060;42.640;24.356;2023-11-21T02:03:04;29.30;;;19.67;;
32824;SDS011;51060;42.640;24.356;2023-11-21T02:05:29;21.10;;;14.60;;
32824;SDS011;51060;42.640;24.356;2023-11-21T02:07:55;20.80;;;13.80;;
32824;SDS011;51060;42.640;24.356;2023-11-21T02:10:21;19.77;;;13.27;;
32824;SDS011;51060;42.640;24.356;2023-11-21T02:12:50;10.73;;;7.47;;
32824;SDS011;51060;42.640;24.356;2023-11-21T02:15:16;13.00;;;8.37;;
32824;SDS011;51060;42.640;24.356;2023-11-21T02:17:45;14.47;;;8.70;;
32824;SDS011;51060;42.640;24.356;2023-11-21T02:20:12;13.97;;;8.87;;
32824;SDS011;51060;42.640;24.356;2023-11-21T02:22:43;16.03;;;10.63;;
32824;SDS011;51060;42.640;24.356;2023-11-21T02:25:14;17.57;;;12.57;;
32824;SDS011;51060;42.640;24.356;2023-11-21T02:27:39;23.50;;;16.27;;
32824;SDS011;51060;42.640;24.356;2023-11-21T02:30:05;24.80;;;17.20;;
32824;SDS011;51060;42.640;24.356;2023-11-21T02:32:33;21.83;;;13.67;;
32824;SDS011;51060;42.640;24.356;2023-11-21T02:34:59;18.30;;;11.60;;
32824;SDS011;51060;42.640;24.356;2023-11-21T02:37:26;16.93;;;11.77;;
32824;SDS011;51060;42.640;24.356;2023-11-21T02:39:52;20.53;;;14.33;;
32824;SDS011;51060;42.640;24.356;2023-11-21T02:42:18;17.67;;;12.17;;
32824;SDS011;51060;42.640;24.356;2023-11-21T02:44:44;19.40;;;13.73;;
32824;SDS011;51060;42.640;24.356;2023-11-21T02:47:09;18.53;;;12.40;;
32824;SDS011;51060;42.640;24.356;2023-11-21T02:49:35;17.17;;;11.03;;
32824;SDS011;51060;42.640;24.356;2023-11-21T02:52:01;18.70;;;11.40;;
32824;SDS011;51060;42.640;24.356;2023-11-21T02:54:27;15.77;;;10.20;;
32824;SDS011;51060;42.640;24.356;2023-11-21T02:56:53;16.83;;;10.87;;
32824;SDS011;51060;42.640;24.356;2023-11-21T02:59:18;17.67;;;11.57;;
32824;SDS011;51060;42.640;24.356;2023-11-21T03:01:44;17.13;;;10.70;;
32824;SDS011;51060;42.640;24.356;2023-11-21T03:04:11;19.10;;;11.57;;
32824;SDS011;51060;42.640;24.356;2023-11-21T03:06:43;26.70;;;15.93;;
32824;SDS011;51060;42.640;24.356;2023-11-21T03:09:09;26.20;;;15.80;;
32824;SDS011;51060;42.640;24.356;2023-11-21T03:11:37;38.43;;;22.27;;
32824;SDS011;51060;42.640;24.356;2023-11-21T03:14:03;87.20;;;44.70;;
32824;SDS011;51060;42.640;24.356;2023-11-21T03:16:31;19.30;;;12.03;;
32824;SDS011;51060;42.640;24.356;2023-11-21T03:18:57;19.20;;;11.10;;
32824;SDS011;51060;42.640;24.356;2023-11-21T03:21:24;20.80;;;11.93;;
32824;SDS011;51060;42.640;24.356;2023-11-21T03:23:51;16.93;;;11.10;;
32824;SDS011;51060;42.640;24.356;2023-11-21T03:26:18;19.33;;;11.57;;
32824;SDS011;51060;42.640;24.356;2023-11-21T03:28:43;21.83;;;12.60;;
32824;SDS011;51060;42.640;24.356;2023-11-21T03:31:09;32.47;;;17.70;;
32824;SDS011;51060;42.640;24.356;2023-11-21T03:33:35;25.60;;;15.37;;
32824;SDS011;51060;42.640;24.356;2023-11-21T03:36:01;40.43;;;21.17;;
32824;SDS011;51060;42.640;24.356;2023-11-21T03:38:29;36.47;;;22.17;;
32824;SDS011;51060;42.640;24.356;2023-11-21T03:40:54;66.50;;;34.27;;
32824;SDS011;51060;42.640;24.356;2023-11-21T03:43:20;122.03;;;50.40;;
32824;SDS011;51060;42.640;24.356;2023-11-21T03:45:46;75.00;;;34.07;;
32824;SDS011;51060;42.640;24.356;2023-11-21T03:48:12;54.27;;;26.40;;
32824;SDS011;51060;42.640;24.356;2023-11-21T03:50:38;51.27;;;25.73;;
32824;SDS011;51060;42.640;24.356;2023-11-21T03:53:04;39.67;;;21.47;;
32824;SDS011;51060;42.640;24.356;2023-11-21T03:55:30;29.13;;;17.73;;
32824;SDS011;51060;42.640;24.356;2023-11-21T03:57:57;28.97;;;18.57;;
32824;SDS011;51060;42.640;24.356;2023-11-21T04:00:23;39.50;;;22.60;;
32824;SDS011;51060;42.640;24.356;2023-11-21T04:02:49;46.30;;;26.03;;
32824;SDS011;51060;42.640;24.356;2023-11-21T04:05:16;54.43;;;28.27;;
32824;SDS011;51060;42.640;24.356;2023-11-21T04:07:42;33.60;;;18.67;;
32824;SDS011;51060;42.640;24.356;2023-11-21T04:10:08;36.90;;;21.43;;
32824;SDS011;51060;42.640;24.356;2023-11-21T04:12:37;32.47;;;20.93;;
32824;SDS011;51060;42.640;24.356;2023-11-21T04:15:03;36.40;;;21.97;;
32824;SDS011;51060;42.640;24.356;2023-11-21T04:17:29;67.03;;;38.53;;
32824;SDS011;51060;42.640;24.356;2023-11-21T04:19:56;44.60;;;28.13;;
32824;SDS011;51060;42.640;24.356;2023-11-21T04:22:21;42.70;;;27.67;;
32824;SDS011;51060;42.640;24.356;2023-11-21T04:24:47;109.73;;;58.30;;
32824;SDS011;51060;42.640;24.356;2023-11-21T04:27:14;70.83;;;43.57;;
32824;SDS011;51060;42.640;24.356;2023-11-21T04:29:43;59.03;;;34.77;;
32824;SDS011;51060;42.640;24.356;2023-11-21T04:32:09;53.03;;;31.37;;
32824;SDS011;51060;42.640;24.356;2023-11-21T04:34:35;52.83;;;32.73;;
32824;SDS011;51060;42.640;24.356;2023-11-21T04:37:01;53.60;;;32.40;;
32824;SDS011;51060;42.640;24.356;2023-11-21T04:39:28;42.70;;;28.43;;
32824;SDS011;51060;42.640;24.356;2023-11-21T04:41:54;35.90;;;26.27;;
32824;SDS011;51060;42.640;24.356;2023-11-21T04:44:19;32.63;;;24.97;;
32824;SDS011;51060;42.640;24.356;2023-11-21T04:46:45;62.50;;;39.47;;
32824;SDS011;51060;42.640;24.356;2023-11-21T04:49:11;58.27;;;37.90;;
32824;SDS011;51060;42.640;24.356;2023-11-21T04:51:36;90.23;;;54.17;;
32824;SDS011;51060;42.640;24.356;2023-11-21T04:54:02;79.03;;;46.77;;
32824;SDS011;51060;42.640;24.356;2023-11-21T04:56:28;57.40;;;37.70;;
32824;SDS011;51060;42.640;24.356;2023-11-21T04:58:54;45.60;;;29.53;;
32824;SDS011;51060;42.640;24.356;2023-11-21T05:01:19;40.60;;;30.07;;
32824;SDS011;51060;42.640;24.356;2023-11-21T05:03:46;41.63;;;30.57;;
32824;SDS011;51060;42.640;24.356;2023-11-21T05:06:12;39.10;;;27.27;;
32824;SDS011;51060;42.640;24.356;2023-11-21T05:08:39;28.93;;;21.40;;
32824;SDS011;51060;42.640;24.356;2023-11-21T05:11:05;32.83;;;24.03;;
32824;SDS011;51060;42.640;24.356;2023-11-21T05:13:35;33.80;;;24.93;;
32824;SDS011;51060;42.640;24.356;2023-11-21T05:16:00;47.00;;;33.27;;
32824;SDS011;51060;42.640;24.356;2023-11-21T05:18:30;84.47;;;55.53;;
32824;SDS011;51060;42.640;24.356;2023-11-21T05:20:56;84.80;;;56.10;;
32824;SDS011;51060;42.640;24.356;2023-11-21T05:23:22;79.30;;;52.53;;
32824;SDS011;51060;42.640;24.356;2023-11-21T05:25:48;129.30;;;76.83;;
32824;SDS011;51060;42.640;24.356;2023-11-21T05:28:13;134.43;;;79.93;;
32824;SDS011;51060;42.640;24.356;2023-11-21T05:30:39;151.67;;;89.13;;
32824;SDS011;51060;42.640;24.356;2023-11-21T05:33:05;136.23;;;81.57;;
32824;SDS011;51060;42.640;24.356;2023-11-21T05:35:31;102.90;;;62.40;;
32824;SDS011;51060;42.640;24.356;2023-11-21T05:37:57;70.63;;;46.93;;
32824;SDS011;51060;42.640;24.356;2023-11-21T05:40:22;51.73;;;34.87;;
32824;SDS011;51060;42.640;24.356;2023-11-21T05:42:48;51.53;;;33.73;;
32824;SDS011;51060;42.640;24.356;2023-11-21T05:45:17;77.37;;;49.57;;
32824;SDS011;51060;42.640;24.356;2023-11-21T05:47:44;74.70;;;51.23;;
32824;SDS011;51060;42.640;24.356;2023-11-21T05:50:11;83.00;;;52.97;;
32824;SDS011;51060;42.640;24.356;2023-11-21T05:52:40;52.93;;;38.80;;
32824;SDS011;51060;42.640;24.356;2023-11-21T05:55:09;53.90;;;37.90;;
32824;SDS011;51060;42.640;24.356;2023-11-21T05:57:35;58.47;;;42.00;;
32824;SDS011;51060;42.640;24.356;2023-11-21T06:02:40;73.27;;;50.43;;
32824;SDS011;51060;42.640;24.356;2023-11-21T06:05:06;78.23;;;59.60;;
32824;SDS011;51060;42.640;24.356;2023-11-21T06:07:33;83.30;;;59.70;;
32824;SDS011;51060;42.640;24.356;2023-11-21T06:10:00;76.50;;;56.13;;
32824;SDS011;51060;42.640;24.356;2023-11-21T06:12:34;65.87;;;47.33;;
32824;SDS011;51060;42.640;24.356;2023-11-21T06:15:04;68.03;;;51.50;;
32824;SDS011;51060;42.640;24.356;2023-11-21T06:17:30;73.73;;;55.30;;
32824;SDS011;51060;42.640;24.356;2023-11-21T06:19:57;61.37;;;46.60;;
32824;SDS011;51060;42.640;24.356;2023-11-21T06:22:22;86.20;;;61.70;;
32824;SDS011;51060;42.640;24.356;2023-11-21T06:24:48;99.63;;;69.37;;
32824;SDS011;51060;42.640;24.356;2023-11-21T06:27:14;104.13;;;73.33;;
32824;SDS011;51060;42.640;24.356;2023-11-21T06:29:41;105.70;;;72.47;;
32824;SDS011;51060;42.640;24.356;2023-11-21T06:32:07;121.57;;;87.53;;
32824;SDS011;51060;42.640;24.356;2023-11-21T06:34:33;134.43;;;94.53;;
32824;SDS011;51060;42.640;24.356;2023-11-21T06:36:59;147.47;;;101.00;;
32824;SDS011;51060;42.640;24.356;2023-11-21T06:39:25;156.60;;;102.23;;
32824;SDS011;51060;42.640;24.356;2023-11-21T06:41:50;140.63;;;93.13;;
32824;SDS011;51060;42.640;24.356;2023-11-21T06:44:16;136.43;;;92.57;;
32824;SDS011;51060;42.640;24.356;2023-11-21T06:46:42;137.03;;;89.27;;
32824;SDS011;51060;42.640;24.356;2023-11-21T06:49:08;154.83;;;98.77;;
32824;SDS011;51060;42.640;24.356;2023-11-21T06:51:34;152.07;;;93.23;;
32824;SDS011;51060;42.640;24.356;2023-11-21T06:53:59;146.77;;;89.53;;
32824;SDS011;51060;42.640;24.356;2023-11-21T06:56:25;140.37;;;82.17;;
32824;SDS011;51060;42.640;24.356;2023-11-21T06:58:51;117.50;;;70.63;;
32824;SDS011;51060;42.640;24.356;2023-11-21T07:01:19;117.67;;;68.73;;
32824;SDS011;51060;42.640;24.356;2023-11-21T07:03:45;101.10;;;63.93;;
32824;SDS011;51060;42.640;24.356;2023-11-21T07:06:10;82.07;;;54.43;;
32824;SDS011;51060;42.640;24.356;2023-11-21T07:08:36;96.70;;;65.80;;
32824;SDS011;51060;42.640;24.356;2023-11-21T07:11:03;92.53;;;62.53;;
32824;SDS011;51060;42.640;24.356;2023-11-21T07:13:29;97.67;;;63.07;;
32824;SDS011;51060;42.640;24.356;2023-11-21T07:15:55;97.40;;;67.27;;
32824;SDS011;51060;42.640;24.356;2023-11-21T07:18:21;118.83;;;80.87;;
32824;SDS011;51060;42.640;24.356;2023-11-21T07:20:48;135.37;;;89.67;;
32824;SDS011;51060;42.640;24.356;2023-11-21T07:23:13;126.10;;;86.60;;
32824;SDS011;51060;42.640;24.356;2023-11-21T07:25:40;141.40;;;96.63;;
32824;SDS011;51060;42.640;24.356;2023-11-21T07:28:08;153.03;;;105.17;;
32824;SDS011;51060;42.640;24.356;2023-11-21T07:30:34;147.87;;;103.97;;
32824;SDS011;51060;42.640;24.356;2023-11-21T07:33:00;161.43;;;109.47;;
32824;SDS011;51060;42.640;24.356;2023-11-21T07:35:26;164.93;;;112.70;;
32824;SDS011;51060;42.640;24.356;2023-11-21T07:37:51;165.03;;;116.23;;
32824;SDS011;51060;42.640;24.356;2023-11-21T07:40:17;161.13;;;113.53;;
32824;SDS011;51060;42.640;24.356;2023-11-21T07:42:43;138.73;;;101.93;;
32824;SDS011;51060;42.640;24.356;2023-11-21T07:45:09;125.37;;;93.07;;
32824;SDS011;51060;42.640;24.356;2023-11-21T07:47:35;116.40;;;90.47;;
32824;SDS011;51060;42.640;24.356;2023-11-21T07:50:02;113.20;;;86.13;;
32824;SDS011;51060;42.640;24.356;2023-11-21T07:52:28;112.10;;;87.53;;
32824;SDS011;51060;42.640;24.356;2023-11-21T07:54:54;100.23;;;78.73;;
32824;SDS011;51060;42.640;24.356;2023-11-21T07:57:20;88.63;;;68.73;;
32824;SDS011;51060;42.640;24.356;2023-11-21T07:59:45;78.93;;;62.53;;
32824;SDS011;51060;42.640;24.356;2023-11-21T08:02:11;62.80;;;49.20;;
32824;SDS011;51060;42.640;24.356;2023-11-21T08:04:37;49.93;;;41.00;;
32824;SDS011;51060;42.640;24.356;2023-11-21T08:07:03;45.33;;;37.03;;
32824;SDS011;51060;42.640;24.356;2023-11-21T08:09:29;35.63;;;27.57;;
32824;SDS011;51060;42.640;24.356;2023-11-21T08:11:55;28.57;;;24.13;;
32824;SDS011;51060;42.640;24.356;2023-11-21T08:14:22;21.40;;;16.20;;
32824;SDS011;51060;42.640;24.356;2023-11-21T08:16:50;21.37;;;16.63;;
32824;SDS011;51060;42.640;24.356;2023-11-21T08:19:16;20.00;;;16.73;;
32824;SDS011;51060;42.640;24.356;2023-11-21T08:21:43;18.33;;;14.40;;
32824;SDS011;51060;42.640;24.356;2023-11-21T08:24:11;18.13;;;13.23;;
32824;SDS011;51060;42.640;24.356;2023-11-21T08:26:37;17.80;;;14.13;;
32824;SDS011;51060;42.640;24.356;2023-11-21T08:29:03;19.80;;;14.87;;
32824;SDS011;51060;42.640;24.356;2023-11-21T08:31:29;20.43;;;16.50;;
32824;SDS011;51060;42.640;24.356;2023-11-21T08:33:55;21.27;;;17.17;;
32824;SDS011;51060;42.640;24.356;2023-11-21T08:36:21;20.40;;;16.93;;
32824;SDS011;51060;42.640;24.356;2023-11-21T08:38:49;19.77;;;15.67;;
32824;SDS011;51060;42.640;24.356;2023-11-21T08:41:17;19.80;;;15.13;;
32824;SDS011;51060;42.640;24.356;2023-11-21T08:43:47;15.10;;;13.00;;
32824;SDS011;51060;42.640;24.356;2023-11-21T08:46:14;16.07;;;13.03;;
32824;SDS011;51060;42.640;24.356;2023-11-21T08:48:40;17.00;;;12.70;;
32824;SDS011;51060;42.640;24.356;2023-11-21T08:51:06;15.73;;;11.60;;
32824;SDS011;51060;42.640;24.356;2023-11-21T08:53:32;10.17;;;8.00;;
32824;SDS011;51060;42.640;24.356;2023-11-21T08:55:58;8.73;;;7.63;;
32824;SDS011;51060;42.640;24.356;2023-11-21T08:58:24;9.77;;;6.73;;
32824;SDS011;51060;42.640;24.356;2023-11-21T09:00:49;9.50;;;7.30;;
32824;SDS011;51060;42.640;24.356;2023-11-21T09:03:15;9.80;;;7.23;;
32824;SDS011;51060;42.640;24.356;2023-11-21T09:05:41;12.10;;;9.77;;
32824;SDS011;51060;42.640;24.356;2023-11-21T09:08:06;15.73;;;11.63;;
32824;SDS011;51060;42.640;24.356;2023-11-21T09:10:35;14.73;;;9.93;;
32824;SDS011;51060;42.640;24.356;2023-11-21T09:13:02;13.77;;;8.90;;
32824;SDS011;51060;42.640;24.356;2023-11-21T09:15:28;7.90;;;6.03;;
32824;SDS011;51060;42.640;24.356;2023-11-21T09:17:53;6.97;;;5.13;;
32824;SDS011;51060;42.640;24.356;2023-11-21T09:20:19;5.10;;;4.27;;
32824;SDS011;51060;42.640;24.356;2023-11-21T09:22:48;7.53;;;4.87;;
32824;SDS011;51060;42.640;24.356;2023-11-21T09:25:14;3.23;;;2.93;;
32824;SDS011;51060;42.640;24.356;2023-11-21T09:27:41;4.60;;;3.47;;
32824;SDS011;51060;42.640;24.356;2023-11-21T09:30:07;6.40;;;4.32;;
32824;SDS011;51060;42.640;24.356;2023-11-21T09:32:37;4.23;;;3.20;;
32824;SDS011;51060;42.640;24.356;2023-11-21T09:35:04;7.28;;;5.13;;
32824;SDS011;51060;42.640;24.356;2023-11-21T09:37:30;6.35;;;3.72;;
32824;SDS011;51060;42.640;24.356;2023-11-21T09:39:57;2.88;;;1.55;;
32824;SDS011;51060;42.640;24.356;2023-11-21T09:42:23;4.32;;;3.22;;
32824;SDS011;51060;42.640;24.356;2023-11-21T09:44:58;4.90;;;3.73;;
32824;SDS011;51060;42.640;24.356;2023-11-21T09:47:29;9.25;;;6.03;;
32824;SDS011;51060;42.640;24.356;2023-11-21T09:49:56;9.48;;;6.05;;
32824;SDS011;51060;42.640;24.356;2023-11-21T09:52:24;7.97;;;4.72;;
32824;SDS011;51060;42.640;24.356;2023-11-21T09:54:51;8.95;;;5.50;;
32824;SDS011;51060;42.640;24.356;2023-11-21T09:57:27;10.50;;;6.95;;
32824;SDS011;51060;42.640;24.356;2023-11-21T09:59:53;6.82;;;4.57;;
32824;SDS011;51060;42.640;24.356;2023-11-21T10:02:25;5.28;;;3.90;;
32824;SDS011;51060;42.640;24.356;2023-11-21T10:04:53;3.00;;;2.30;;
32824;SDS011;51060;42.640;24.356;2023-11-21T10:07:20;14.10;;;9.60;;
32824;SDS011;51060;42.640;24.356;2023-11-21T10:09:46;4.95;;;3.35;;
32824;SDS011;51060;42.640;24.356;2023-11-21T10:12:14;3.33;;;2.20;;
32824;SDS011;51060;42.640;24.356;2023-11-21T10:14:42;7.95;;;5.43;;
32824;SDS011;51060;42.640;24.356;2023-11-21T10:17:12;9.75;;;7.13;;
32824;SDS011;51060;42.640;24.356;2023-11-21T10:19:38;4.68;;;3.20;;
32824;SDS011;51060;42.640;24.356;2023-11-21T10:22:05;4.65;;;3.55;;
32824;SDS011;51060;42.640;24.356;2023-11-21T10:24:32;3.92;;;2.78;;
32824;SDS011;51060;42.640;24.356;2023-11-21T10:26:58;3.88;;;2.72;;
32824;SDS011;51060;42.640;24.356;2023-11-21T10:29:25;5.78;;;4.47;;
32824;SDS011;51060;42.640;24.356;2023-11-21T10:31:54;6.60;;;4.32;;
32824;SDS011;51060;42.640;24.356;2023-11-21T10:34:22;7.63;;;5.60;;
32824;SDS011;51060;42.640;24.356;2023-11-21T10:36:48;4.18;;;3.00;;
32824;SDS011;51060;42.640;24.356;2023-11-21T10:39:16;3.97;;;3.35;;
32824;SDS011;51060;42.640;24.356;2023-11-21T10:41:46;5.53;;;4.10;;
32824;SDS011;51060;42.640;24.356;2023-11-21T10:44:16;4.53;;;2.83;;
32824;SDS011;51060;42.640;24.356;2023-11-21T10:46:52;2.80;;;2.42;;
32824;SDS011;51060;42.640;24.356;2023-11-21T10:49:24;3.67;;;2.00;;
32824;SDS011;51060;42.640;24.356;2023-11-21T10:51:51;6.43;;;4.15;;
32824;SDS011;51060;42.640;24.356;2023-11-21T10:54:19;4.07;;;2.92;;
32824;SDS011;51060;42.640;24.356;2023-11-21T10:56:46;5.63;;;3.38;;
32824;SDS011;51060;42.640;24.356;2023-11-21T10:59:16;9.40;;;5.78;;
32824;SDS011;51060;42.640;24.356;2023-11-21T11:01:43;12.98;;;7.38;;
32824;SDS011;51060;42.640;24.356;2023-11-21T11:04:12;13.20;;;8.48;;
32824;SDS011;51060;42.640;24.356;2023-11-21T11:06:42;9.60;;;6.70;;
32824;SDS011;51060;42.640;24.356;2023-11-21T11:09:13;6.45;;;4.70;;
32824;SDS011;51060;42.640;24.356;2023-11-21T11:11:42;10.00;;;6.00;;
32824;SDS011;51060;42.640;24.356;2023-11-21T11:14:11;10.07;;;6.90;;
32824;SDS011;51060;42.640;24.356;2023-11-21T11:16:38;7.18;;;4.50;;
32824;SDS011;51060;42.640;24.356;2023-11-21T11:19:06;9.07;;;4.60;;
32824;SDS011;51060;42.640;24.356;2023-11-21T11:27:52;8.65;;;4.90;;
32824;SDS011;51060;42.640;24.356;2023-11-21T11:35:47;6.60;;;3.83;;
32824;SDS011;51060;42.640;24.356;2023-11-21T11:38:31;5.68;;;3.95;;
32824;SDS011;51060;42.640;24.356;2023-11-21T11:41:01;5.68;;;3.97;;
32824;SDS011;51060;42.640;24.356;2023-11-21T11:43:32;5.72;;;3.75;;
32824;SDS011;51060;42.640;24.356;2023-11-21T11:45:59;4.03;;;3.30;;
32824;SDS011;51060;42.640;24.356;2023-11-21T11:48:29;12.07;;;8.10;;
32824;SDS011;51060;42.640;24.356;2023-11-21T11:51:01;8.13;;;4.85;;
32824;SDS011;51060;42.640;24.356;2023-11-21T11:53:33;5.63;;;3.92;;
32824;SDS011;51060;42.640;24.356;2023-11-21T11:58:58;8.48;;;5.75;;
32824;SDS011;51060;42.640;24.356;2023-11-21T12:01:25;8.60;;;5.07;;
32824;SDS011;51060;42.640;24.356;2023-11-21T12:06:51;9.30;;;5.68;;
32824;SDS011;51060;42.640;24.356;2023-11-21T12:09:21;4.63;;;3.22;;
32824;SDS011;51060;42.640;24.356;2023-11-21T12:11:51;3.00;;;2.47;;
32824;SDS011;51060;42.640;24.356;2023-11-21T12:14:17;5.40;;;3.25;;
32824;SDS011;51060;42.640;24.356;2023-11-21T12:16:43;6.55;;;4.15;;
32824;SDS011;51060;42.640;24.356;2023-11-21T12:19:09;6.40;;;4.20;;
32824;SDS011;51060;42.640;24.356;2023-11-21T12:21:38;6.68;;;4.30;;
32824;SDS011;51060;42.640;24.356;2023-11-21T12:24:06;6.22;;;4.43;;
32824;SDS011;51060;42.640;24.356;2023-11-21T12:26:39;7.65;;;4.85;;
32824;SDS011;51060;42.640;24.356;2023-11-21T12:29:05;7.85;;;5.22;;
32824;SDS011;51060;42.640;24.356;2023-11-21T12:31:33;6.10;;;4.78;;
32824;SDS011;51060;42.640;24.356;2023-11-21T12:34:00;10.32;;;7.68;;
32824;SDS011;51060;42.640;24.356;2023-11-21T12:36:26;6.22;;;4.75;;
32824;SDS011;51060;42.640;24.356;2023-11-21T12:38:52;6.10;;;4.93;;
32824;SDS011;51060;42.640;24.356;2023-11-21T12:41:17;8.77;;;6.40;;
32824;SDS011;51060;42.640;24.356;2023-11-21T12:43:43;6.55;;;4.82;;
32824;SDS011;51060;42.640;24.356;2023-11-21T12:46:10;14.20;;;11.75;;
32824;SDS011;51060;42.640;24.356;2023-11-21T12:48:39;6.80;;;5.95;;
32824;SDS011;51060;42.640;24.356;2023-11-21T12:51:09;7.35;;;6.00;;
32824;SDS011;51060;42.640;24.356;2023-11-21T12:53:37;7.20;;;5.43;;
32824;SDS011;51060;42.640;24.356;2023-11-21T12:56:21;9.85;;;6.90;;
32824;SDS011;51060;42.640;24.356;2023-11-21T12:58:50;15.05;;;10.90;;
32824;SDS011;51060;42.640;24.356;2023-11-21T13:01:19;17.67;;;14.13;;
32824;SDS011;51060;42.640;24.356;2023-11-21T13:03:47;16.40;;;12.25;;
32824;SDS011;51060;42.640;24.356;2023-11-21T13:06:16;22.15;;;18.60;;
32824;SDS011;51060;42.640;24.356;2023-11-21T13:08:43;34.47;;;24.90;;
32824;SDS011;51060;42.640;24.356;2023-11-21T13:11:10;30.75;;;23.70;;
32824;SDS011;51060;42.640;24.356;2023-11-21T13:13:36;56.95;;;31.00;;
32824;SDS011;51060;42.640;24.356;2023-11-21T13:16:04;129.38;;;50.28;;
32824;SDS011;51060;42.640;24.356;2023-11-21T13:18:30;89.47;;;37.20;;
32824;SDS011;51060;42.640;24.356;2023-11-21T13:21:00;39.53;;;19.23;;
32824;SDS011;51060;42.640;24.356;2023-11-21T13:23:42;17.58;;;7.88;;
32824;SDS011;51060;42.640;24.356;2023-11-21T13:26:08;10.10;;;5.88;;
32824;SDS011;51060;42.640;24.356;2023-11-21T13:28:34;21.48;;;12.00;;
32824;SDS011;51060;42.640;24.356;2023-11-21T13:31:03;13.98;;;7.82;;
32824;SDS011;51060;42.640;24.356;2023-11-21T13:33:46;10.55;;;7.18;;
32824;SDS011;51060;42.640;24.356;2023-11-21T13:36:20;10.73;;;7.22;;
32824;SDS011;51060;42.640;24.356;2023-11-21T13:38:51;14.82;;;7.70;;
32824;SDS011;51060;42.640;24.356;2023-11-21T13:41:20;12.93;;;7.43;;
32824;SDS011;51060;42.640;24.356;2023-11-21T13:43:53;16.40;;;9.57;;
32824;SDS011;51060;42.640;24.356;2023-11-21T13:46:25;11.20;;;7.03;;
32824;SDS011;51060;42.640;24.356;2023-11-21T13:48:50;7.05;;;5.50;;
32824;SDS011;51060;42.640;24.356;2023-11-21T13:51:21;4.00;;;3.65;;
32824;SDS011;51060;42.640;24.356;2023-11-21T13:53:55;3.38;;;3.08;;
32824;SDS011;51060;42.640;24.356;2023-11-21T13:56:21;2.70;;;2.35;;
32824;SDS011;51060;42.640;24.356;2023-11-21T13:58:50;3.05;;;2.40;;
32824;SDS011;51060;42.640;24.356;2023-11-21T14:01:17;3.55;;;2.67;;
32824;SDS011;51060;42.640;24.356;2023-11-21T14:04:02;3.88;;;2.22;;
32824;SDS011;51060;42.640;24.356;2023-11-21T14:06:41;3.58;;;2.70;;
32824;SDS011;51060;42.640;24.356;2023-11-21T14:09:14;6.40;;;4.10;;
32824;SDS011;51060;42.640;24.356;2023-11-21T14:11:57;16.38;;;11.93;;
32824;SDS011;51060;42.640;24.356;2023-11-21T14:14:25;16.92;;;11.27;;
32824;SDS011;51060;42.640;24.356;2023-11-21T14:16:53;11.85;;;8.45;;
32824;SDS011;51060;42.640;24.356;2023-11-21T14:19:21;8.52;;;6.55;;
32824;SDS011;51060;42.640;24.356;2023-11-21T14:21:47;12.68;;;8.88;;
32824;SDS011;51060;42.640;24.356;2023-11-21T14:24:15;11.53;;;9.10;;
32824;SDS011;51060;42.640;24.356;2023-11-21T14:26:44;14.43;;;11.35;;
32824;SDS011;51060;42.640;24.356;2023-11-21T14:29:14;15.95;;;11.93;;
32824;SDS011;51060;42.640;24.356;2023-11-21T14:31:45;27.63;;;18.70;;
32824;SDS011;51060;42.640;24.356;2023-11-21T14:34:11;20.97;;;16.10;;